Hillsboro, New Hampshire
Current Conditions -  °F | °C
As of 3:28 PM on Wednesday 26 Nov 2014 (Local Time) from KCON Reporting Station
Moderate Snow Moderate Snow  
Wind Chill: -3°   Ceiling: 600
Heat Index:   Visibility: 0.5mi
Dew Point: -1°   Wind: 6mph
Humidity: 96%   Direction: 30°NNE
Pressure: 30.06"   Gusts: NA
Location:  43.12°N, 71.9°W
Report Text: KCON 262028Z AUTO 03005KT 1/2SM SN FG VV006 00/M01 A3006 RMK AO2 P0008 T00001006
Loading
Personal Weather Stations






























Interactive Weather Map New forecast layout! Learn more

10-Day Weather Forecast

Advertisements
Track Severe Weather on mobile